Aérodrome :
LOGIN :

S'inscrire | Disclaimer

   EN    FR    IT 

 










Légende :    VFR   VFR Marginal   IFR   IFR Intensif   IFR Très Intensif
Visi : 
Plafond : 
>= 8 km
>= 3000ft
5 à 8 km
1000 à 3000 ft
1500m à 5 km
500 à 1000 ft
800 à 1500m
200 à 500 ft
< 800m
< 200 ft
Symboles :   Orages  Brouillard  Fortes neiges  Fortes précipitations  Vent > 20 kt
SIGMETs :   Divers  Orages  Givrage  Turbulence  Onde Orograph.  Cendres Volcan.







- Altitude de l'aérodrome : 16 ft
- Code IATA : SDR


LEXJ - Santander Cantabria

DERNIER METAR :
  • 212330Z AUTO 23002KT 7000 FEW017/// OVC023/// 13/12 Q1029

METARs EXPIRÉS :
  • 212300Z AUTO 26005KT 7000 OVC016/// 14/12 Q1029
  • 212230Z 25006KT 9999 BKN016 14/12 Q1029
  • 212200Z 24005KT 210V280 9999 BKN018 14/12 Q1029
  • 212130Z 22006KT 190V250 9999 BKN018 14/11 Q1029
  • 212100Z 22006KT 9999 BKN019 14/11 Q1029

TAF TAF LEXJ
Valide du 21 à 21h jusqu'au 22 à 21h UTC


212000Z 2121/2221 22005KT 9999 SCT020 TX17/2214Z TN10/2206Z
PROB40
TEMPO 2215/2221 29010KT 3000 -RADZ BKN014
Pas de NOTAMs connus pour ce terrain.



MET'MAP, la Météo Aéronautique d'un coup d'oeil ! - Copyright ORBIFLY Décembre 2007 - Disclaimer

ORBIFLY MET'MAP TEAM :

Programmation & Développement : Alexandra Zaïnal
Conception & Développement : Baudouin d'Aumeries
Co-Programmation & Développement : Marc-Olivier Méhu
Soutien technique & logistique : Manuel Goepfert

Contact : metmap@orbifly.com




SOURCES & CREDITS :

   NOAA